createdAt,value
2022-09-16T00:02:03.030Z,13.29
2022-09-16T00:04:32.883Z,13.30
2022-09-16T00:07:02.002Z,13.27
2022-09-16T00:09:30.887Z,13.24
2022-09-16T00:11:59.708Z,13.26
2022-09-16T00:14:28.714Z,13.21
2022-09-16T00:16:57.680Z,13.21
2022-09-16T00:19:27.979Z,13.23
2022-09-16T00:21:56.945Z,13.17
2022-09-16T00:24:25.799Z,13.18
2022-09-16T00:26:54.909Z,13.13
2022-09-16T00:29:23.871Z,13.08
2022-09-16T00:31:52.819Z,13.03
2022-09-16T00:34:22.239Z,12.98
2022-09-16T00:36:52.752Z,12.96
2022-09-16T00:39:21.733Z,12.93
2022-09-16T00:41:52.740Z,12.87
2022-09-16T00:44:57.872Z,12.51
2022-09-16T00:47:38.389Z,12.78
2022-09-16T00:50:15.342Z,12.61
2022-09-16T00:52:46.310Z,12.94
2022-09-16T00:55:19.472Z,12.98
2022-09-16T00:57:49.341Z,12.93
2022-09-16T01:00:18.724Z,12.84
2022-09-16T01:02:49.685Z,12.84
2022-09-16T01:05:25.408Z,12.83
2022-09-16T01:07:56.465Z,12.81
2022-09-16T01:10:27.165Z,12.85
2022-09-16T01:12:58.582Z,12.92
2022-09-16T01:15:36.015Z,12.98
2022-09-16T01:18:21.569Z,12.04
2022-09-16T01:21:23.811Z,13.05
2022-09-16T01:24:34.411Z,12.95
2022-09-16T01:27:45.097Z,12.85
2022-09-16T01:30:41.728Z,12.86
2022-09-16T01:33:19.025Z,12.82
2022-09-16T01:35:59.468Z,12.87
2022-09-16T01:39:01.010Z,12.97
2022-09-16T01:41:39.440Z,13.01
2022-09-16T01:44:16.537Z,13.10
2022-09-16T01:46:51.934Z,13.07
2022-09-16T01:49:33.151Z,13.06
2022-09-16T01:52:14.644Z,13.10
2022-09-16T01:54:48.934Z,13.15
2022-09-16T01:57:21.184Z,13.10
2022-09-16T01:59:55.349Z,13.08
2022-09-16T02:02:33.185Z,13.08
2022-09-16T02:05:13.188Z,13.10
2022-09-16T02:07:47.698Z,13.09
2022-09-16T02:10:24.301Z,13.07
2022-09-16T02:13:06.576Z,12.65
2022-09-16T02:15:36.492Z,12.73
2022-09-16T02:18:13.388Z,12.32
2022-09-16T02:20:47.613Z,12.63
2022-09-16T02:23:23.980Z,12.53
2022-09-16T02:25:54.586Z,12.39
2022-09-16T02:28:30.810Z,12.27
2022-09-16T02:31:06.998Z,12.17
2022-09-16T02:33:41.955Z,12.09
2022-09-16T02:36:12.254Z,12.05
2022-09-16T02:38:45.559Z,12.04
2022-09-16T02:41:15.796Z,11.99
2022-09-16T02:43:46.284Z,11.93
2022-09-16T02:46:27.739Z,11.50
2022-09-16T02:49:06.076Z,11.78
2022-09-16T02:51:50.442Z,11.52
2022-09-16T02:54:25.069Z,11.69
2022-09-16T02:56:55.588Z,11.63
2022-09-16T02:59:25.441Z,11.63
2022-09-16T03:01:54.758Z,11.59
2022-09-16T03:04:25.132Z,11.55
2022-09-16T03:06:54.129Z,11.53
2022-09-16T03:09:24.283Z,11.60
2022-09-16T03:12:08.888Z,11.70
2022-09-16T03:15:11.664Z,11.51
2022-09-16T03:17:55.648Z,11.90
2022-09-16T03:20:38.213Z,12.03
2022-09-16T03:23:20.081Z,12.09
2022-09-16T03:25:58.384Z,12.20
2022-09-16T03:28:31.031Z,12.30
2022-09-16T03:31:07.443Z,12.39
2022-09-16T03:33:42.680Z,12.48
2022-09-16T03:36:17.091Z,12.54
2022-09-16T03:38:46.658Z,12.59
2022-09-16T03:41:16.878Z,12.63
2022-09-16T03:44:00.195Z,12.69
2022-09-16T03:46:32.601Z,12.73
2022-09-16T03:49:02.663Z,12.75
2022-09-16T03:51:33.202Z,12.77
2022-09-16T03:54:02.324Z,12.80
2022-09-16T03:56:31.290Z,12.81
2022-09-16T03:59:00.128Z,12.81
2022-09-16T04:01:29.086Z,12.80
2022-09-16T04:03:58.714Z,12.77
2022-09-16T04:06:27.842Z,12.78
2022-09-16T04:09:03.413Z,12.76
2022-09-16T04:11:33.193Z,12.72
2022-09-16T04:14:02.144Z,12.74
2022-09-16T04:16:31.229Z,12.59
2022-09-16T04:19:00.460Z,12.38
2022-09-16T04:21:29.409Z,12.24
2022-09-16T04:23:59.763Z,12.25
2022-09-16T04:26:28.663Z,12.28
2022-09-16T04:28:57.484Z,12.25
2022-09-16T04:31:26.566Z,12.19
2022-09-16T04:33:57.380Z,12.08
2022-09-16T04:36:26.631Z,11.94
2022-09-16T04:38:55.547Z,11.82
2022-09-16T04:41:28.082Z,11.70
2022-09-16T04:43:58.354Z,11.64
2022-09-16T04:46:28.390Z,11.56
2022-09-16T04:48:58.292Z,11.52
2022-09-16T04:51:29.091Z,11.51
2022-09-16T04:53:59.132Z,11.53
2022-09-16T04:56:31.646Z,11.53
2022-09-16T04:59:02.756Z,11.54
2022-09-16T05:01:33.753Z,11.52
2022-09-16T05:04:04.960Z,11.51
2022-09-16T05:06:35.711Z,11.50
2022-09-16T05:09:05.759Z,11.56
2022-09-16T05:11:38.206Z,11.60
2022-09-16T05:14:09.999Z,11.62
2022-09-16T05:16:39.311Z,11.68
2022-09-16T05:19:08.193Z,11.72
2022-09-16T05:21:39.240Z,11.77
2022-09-16T05:24:17.847Z,11.81
2022-09-16T05:26:52.508Z,11.82
2022-09-16T05:29:22.303Z,11.86
2022-09-16T05:32:06.137Z,11.91
2022-09-16T05:34:37.141Z,11.91
2022-09-16T05:37:06.923Z,11.98
2022-09-16T05:39:36.021Z,12.02
2022-09-16T05:42:06.779Z,12.04
2022-09-16T05:44:36.224Z,12.06
2022-09-16T05:47:07.870Z,12.05
2022-09-16T05:49:37.236Z,12.01
2022-09-16T05:52:08.118Z,12.03
2022-09-16T05:54:41.727Z,12.07
2022-09-16T05:57:12.260Z,12.10
2022-09-16T05:59:41.177Z,12.17
2022-09-16T06:02:14.056Z,12.25
2022-09-16T06:04:43.027Z,12.33
2022-09-16T06:07:13.530Z,12.36
2022-09-16T06:09:42.988Z,12.39
2022-09-16T06:12:13.678Z,12.39
2022-09-16T06:14:42.805Z,12.34
2022-09-16T06:17:12.388Z,12.34
2022-09-16T06:19:44.058Z,12.46
2022-09-16T06:22:13.142Z,12.48
2022-09-16T06:24:42.739Z,12.47
2022-09-16T06:27:13.048Z,12.55
2022-09-16T06:29:41.928Z,12.59
2022-09-16T06:32:10.954Z,12.66
2022-09-16T06:34:39.937Z,12.85
2022-09-16T06:37:14.699Z,13.06
2022-09-16T06:39:45.901Z,13.35
2022-09-16T06:42:16.293Z,13.68
2022-09-16T06:44:48.378Z,13.80
2022-09-16T06:47:17.623Z,13.95
2022-09-16T06:49:55.112Z,13.97
2022-09-16T06:52:24.317Z,14.19
2022-09-16T06:54:53.304Z,14.27
2022-09-16T06:57:24.427Z,14.41
2022-09-16T06:59:54.174Z,14.13
2022-09-16T07:02:23.876Z,14.30
2022-09-16T07:05:01.250Z,14.13
2022-09-16T07:07:32.685Z,14.03
2022-09-16T07:10:33.546Z,14.35
2022-09-16T07:13:06.132Z,14.53
2022-09-16T07:15:39.290Z,14.67
2022-09-16T07:18:21.059Z,14.46
2022-09-16T07:21:01.611Z,14.51
2022-09-16T07:23:35.774Z,14.67
2022-09-16T07:26:07.142Z,14.50
2022-09-16T07:28:38.598Z,14.61
2022-09-16T07:31:37.733Z,14.90
2022-09-16T07:34:08.935Z,15.19
2022-09-16T07:36:42.786Z,15.51
2022-09-16T07:39:12.712Z,15.42
2022-09-16T07:41:43.285Z,15.28
2022-09-16T07:44:16.953Z,14.56
2022-09-16T07:46:46.349Z,14.96
2022-09-16T07:49:17.245Z,14.76
2022-09-16T07:51:46.574Z,14.75
2022-09-16T07:54:17.321Z,14.70
2022-09-16T07:56:46.700Z,15.03
2022-09-16T07:59:19.410Z,15.19
2022-09-16T08:01:49.389Z,15.67
2022-09-16T08:04:19.054Z,16.01
2022-09-16T08:06:47.977Z,16.42
2022-09-16T08:12:08.102Z,16.57
2022-09-16T08:14:38.741Z,16.72
2022-09-16T08:17:07.693Z,16.82
2022-09-16T08:19:38.502Z,16.81
2022-09-16T08:22:07.469Z,16.67
2022-09-16T08:24:36.486Z,16.83
2022-09-16T08:27:05.571Z,16.84
2022-09-16T08:29:34.547Z,16.80
2022-09-16T08:32:05.140Z,17.14
2022-09-16T08:34:34.111Z,17.40
2022-09-16T08:37:02.898Z,17.21
2022-09-16T08:39:31.913Z,17.03
2022-09-16T08:42:31.786Z,17.01
2022-09-16T08:45:20.729Z,16.90
2022-09-16T08:48:11.339Z,16.83
2022-09-16T08:50:44.332Z,16.74
2022-09-16T08:53:17.458Z,17.28
2022-09-16T08:55:51.057Z,17.30
2022-09-16T08:58:24.244Z,16.56
2022-09-16T09:00:59.812Z,17.36
2022-09-16T09:03:38.953Z,17.41
2022-09-16T09:06:21.942Z,17.61
2022-09-16T09:09:01.814Z,16.77
2022-09-16T09:11:40.406Z,17.09
2022-09-16T09:14:29.966Z,17.26
2022-09-16T09:17:10.871Z,17.39
2022-09-16T09:20:01.191Z,17.65
2022-09-16T09:23:01.882Z,17.93
2022-09-16T09:25:44.328Z,18.57
2022-09-16T09:28:54.645Z,18.67
2022-09-16T09:31:41.786Z,18.54
2022-09-16T09:34:31.550Z,18.44
2022-09-16T09:37:27.172Z,18.38
2022-09-16T09:40:11.042Z,18.27
2022-09-16T09:42:47.389Z,18.01
2022-09-16T09:45:24.778Z,17.75
2022-09-16T09:48:02.293Z,17.69
2022-09-16T09:50:41.714Z,18.11
2022-09-16T09:53:21.633Z,18.21
2022-09-16T09:55:58.908Z,18.01
2022-09-16T09:58:38.383Z,17.14
2022-09-16T10:01:07.663Z,17.41
2022-09-16T10:03:38.070Z,17.44
2022-09-16T10:06:07.425Z,17.79
2022-09-16T10:08:47.808Z,18.19
2022-09-16T10:11:20.550Z,18.28
2022-09-16T10:13:51.910Z,18.77
2022-09-16T10:16:26.564Z,19.09
2022-09-16T10:19:02.901Z,19.19
2022-09-16T10:21:43.702Z,19.12
2022-09-16T10:24:35.250Z,19.40
2022-09-16T10:27:20.646Z,19.43
2022-09-16T10:29:49.937Z,19.42
2022-09-16T10:32:20.935Z,19.28
2022-09-16T10:34:50.008Z,19.42
2022-09-16T10:37:21.075Z,19.21
2022-09-16T10:39:57.718Z,19.06
2022-09-16T10:42:29.244Z,18.61
2022-09-16T10:45:06.251Z,18.15
2022-09-16T10:47:36.433Z,17.23
2022-09-16T10:50:08.498Z,17.10
2022-09-16T10:52:45.913Z,17.82
2022-09-16T10:55:25.596Z,17.84
2022-09-16T10:57:55.657Z,18.32
2022-09-16T11:00:28.950Z,18.78
2022-09-16T11:03:49.598Z,18.84
2022-09-16T11:06:44.362Z,19.30
2022-09-16T11:09:22.354Z,18.88
2022-09-16T11:12:26.416Z,19.05
2022-09-16T11:15:01.737Z,19.02
2022-09-16T11:17:53.313Z,19.11
2022-09-16T11:21:06.554Z,19.44
2022-09-16T11:23:57.481Z,19.66
2022-09-16T11:26:44.896Z,19.72
2022-09-16T11:29:53.603Z,19.53
2022-09-16T11:32:38.713Z,19.47
2022-09-16T11:35:36.064Z,19.03
2022-09-16T11:38:17.776Z,18.41
2022-09-16T11:40:57.682Z,18.42
2022-09-16T11:43:54.926Z,18.60
2022-09-16T11:46:35.269Z,18.28
2022-09-16T11:49:36.368Z,17.93
2022-09-16T11:52:30.272Z,17.81
2022-09-16T11:55:30.990Z,17.53
2022-09-16T11:58:13.406Z,17.03
2022-09-16T12:00:43.421Z,16.52
2022-09-16T12:03:25.064Z,16.47
2022-09-16T12:06:04.633Z,15.79
2022-09-16T12:08:46.204Z,16.07
2022-09-16T12:11:27.190Z,15.76
2022-09-16T12:14:14.657Z,15.93
2022-09-16T12:16:51.560Z,15.87
2022-09-16T12:19:28.126Z,15.88
2022-09-16T12:22:05.507Z,15.87
2022-09-16T12:24:43.978Z,15.84
2022-09-16T12:27:35.316Z,16.05
2022-09-16T12:30:13.192Z,16.32
2022-09-16T12:32:53.647Z,16.83
2022-09-16T12:35:33.053Z,17.41
2022-09-16T12:38:02.236Z,17.97
2022-09-16T12:40:42.757Z,18.35
2022-09-16T12:44:17.460Z,18.35
2022-09-16T12:47:57.159Z,19.32
2022-09-16T12:51:24.687Z,19.16
2022-09-16T12:54:51.334Z,18.52
2022-09-16T12:57:49.075Z,17.73
2022-09-16T13:00:23.270Z,17.34
2022-09-16T13:02:56.405Z,17.23
2022-09-16T13:05:33.418Z,17.14
2022-09-16T13:08:08.666Z,17.20
2022-09-16T13:10:56.265Z,17.19
2022-09-16T13:13:35.677Z,16.81
2022-09-16T13:16:08.162Z,17.04
2022-09-16T13:18:44.885Z,17.07
2022-09-16T13:21:27.335Z,15.92
2022-09-16T13:24:06.542Z,17.03
2022-09-16T13:26:46.928Z,17.09
2022-09-16T13:29:44.380Z,17.45
2022-09-16T13:32:38.667Z,17.73
2022-09-16T13:35:36.168Z,17.07
2022-09-16T13:38:25.820Z,18.25
2022-09-16T13:41:01.234Z,18.56
2022-09-16T13:43:37.425Z,18.64
2022-09-16T13:46:16.357Z,18.63
2022-09-16T13:48:56.506Z,18.38
2022-09-16T13:51:25.966Z,18.36
2022-09-16T13:54:00.132Z,18.24
2022-09-16T13:56:53.164Z,18.15
2022-09-16T13:59:43.796Z,18.11
2022-09-16T14:02:24.052Z,18.04
2022-09-16T14:05:14.977Z,17.91
2022-09-16T14:07:57.611Z,17.42
2022-09-16T14:10:41.869Z,17.64
2022-09-16T14:13:16.967Z,17.62
2022-09-16T14:15:50.679Z,17.58
2022-09-16T14:18:25.431Z,17.62
2022-09-16T14:21:02.271Z,17.38
2022-09-16T14:23:34.201Z,17.38
2022-09-16T14:26:13.830Z,17.58
2022-09-16T14:28:44.394Z,17.65
2022-09-16T14:31:20.295Z,17.65
2022-09-16T14:33:56.772Z,17.78
2022-09-16T14:36:35.205Z,17.80
2022-09-16T14:39:13.983Z,17.56
2022-09-16T14:41:49.970Z,17.34
2022-09-16T14:44:33.909Z,17.31
2022-09-16T14:47:21.816Z,17.27
2022-09-16T14:50:08.395Z,17.19
2022-09-16T14:52:37.735Z,16.76
2022-09-16T14:55:15.596Z,17.38
2022-09-16T14:57:44.849Z,17.47
2022-09-16T15:00:20.277Z,17.39
2022-09-16T15:02:56.854Z,17.12
2022-09-16T15:05:32.593Z,17.17
2022-09-16T15:08:14.857Z,16.79
2022-09-16T15:10:52.912Z,17.12
2022-09-16T15:13:27.450Z,17.09
2022-09-16T15:16:04.395Z,16.82
2022-09-16T15:18:37.459Z,17.06
2022-09-16T15:21:13.707Z,17.07
2022-09-16T15:23:47.032Z,17.02
2022-09-16T15:26:18.095Z,17.04
2022-09-16T15:28:58.125Z,16.91
2022-09-16T15:31:40.806Z,16.91
2022-09-16T15:34:23.225Z,16.71
2022-09-16T15:37:00.177Z,16.79
2022-09-16T15:39:33.696Z,16.78
2022-09-16T15:42:13.645Z,16.83
2022-09-16T15:44:49.245Z,16.81
2022-09-16T15:47:27.266Z,16.79
2022-09-16T15:50:06.982Z,16.68
2022-09-16T15:52:55.542Z,16.56
2022-09-16T15:55:35.825Z,16.37
2022-09-16T15:58:10.852Z,16.34
2022-09-16T16:01:11.654Z,16.19
2022-09-16T16:03:55.877Z,16.07
2022-09-16T16:06:48.345Z,15.91
2022-09-16T16:09:40.111Z,15.77
2022-09-16T16:12:11.329Z,15.81
2022-09-16T16:14:41.903Z,15.78
2022-09-16T16:17:14.668Z,15.70
2022-09-16T16:19:48.487Z,15.65
2022-09-16T16:22:18.135Z,15.72
2022-09-16T16:24:47.127Z,15.80
2022-09-16T16:27:16.186Z,15.89
2022-09-16T16:29:45.287Z,15.74
2022-09-16T16:32:16.490Z,15.50
2022-09-16T16:34:50.172Z,15.29
2022-09-16T16:37:44.886Z,14.31
2022-09-16T16:40:12.342Z,15.07
2022-09-16T16:42:43.688Z,15.00
2022-09-16T16:45:14.192Z,14.93
2022-09-16T16:47:43.391Z,14.79
2022-09-16T16:50:13.735Z,14.64
2022-09-16T16:52:44.512Z,14.50
2022-09-16T16:55:13.558Z,14.32
2022-09-16T16:57:42.654Z,14.19
2022-09-16T17:00:14.098Z,14.09
2022-09-16T17:02:44.665Z,13.98
2022-09-16T17:05:15.356Z,13.83
2022-09-16T17:07:47.426Z,13.15
2022-09-16T17:10:16.436Z,12.92
2022-09-16T17:12:53.197Z,13.50
2022-09-16T17:15:22.513Z,13.41
2022-09-16T17:17:51.690Z,13.37
2022-09-16T17:20:26.571Z,13.36
2022-09-16T17:22:55.443Z,13.37
2022-09-16T17:25:24.405Z,13.41
2022-09-16T17:27:53.424Z,13.45
2022-09-16T17:30:22.596Z,13.49
2022-09-16T17:32:52.335Z,13.50
2022-09-16T17:35:23.023Z,13.50
2022-09-16T17:37:52.230Z,13.52
2022-09-16T17:40:22.027Z,13.51
2022-09-16T17:42:53.291Z,13.53
2022-09-16T17:45:25.164Z,13.55
2022-09-16T17:47:54.582Z,13.58
2022-09-16T17:50:24.969Z,13.63
2022-09-16T17:52:54.402Z,13.58
2022-09-16T17:55:23.345Z,13.46
2022-09-16T17:57:52.463Z,13.31
2022-09-16T18:00:21.504Z,13.16
2022-09-16T18:02:50.475Z,12.97
2022-09-16T18:05:20.007Z,12.77
2022-09-16T18:07:50.448Z,12.63
2022-09-16T18:10:19.582Z,12.50
2022-09-16T18:12:48.554Z,12.41
2022-09-16T18:15:17.819Z,12.29
2022-09-16T18:17:47.049Z,12.17
2022-09-16T18:20:51.271Z,12.07
2022-09-16T18:23:28.941Z,12.01
2022-09-16T18:25:58.459Z,11.96
2022-09-16T18:28:28.364Z,11.87
2022-09-16T18:31:04.899Z,11.86
2022-09-16T18:33:34.136Z,11.89
2022-09-16T18:36:05.075Z,11.93
2022-09-16T18:38:37.044Z,11.87
2022-09-16T18:41:08.678Z,11.81
2022-09-16T18:43:38.325Z,11.93
2022-09-16T18:46:14.148Z,11.99
2022-09-16T18:48:44.911Z,12.19
2022-09-16T18:51:19.114Z,12.18
2022-09-16T18:53:51.425Z,12.23
2022-09-16T18:56:22.833Z,12.28
2022-09-16T18:59:21.551Z,12.26
2022-09-16T19:01:51.911Z,12.15
2022-09-16T19:04:23.355Z,12.11
2022-09-16T19:06:54.934Z,11.99
2022-09-16T19:09:26.532Z,11.88
2022-09-16T19:11:56.340Z,11.78
2022-09-16T19:14:27.662Z,11.75
2022-09-16T19:16:57.689Z,11.68
2022-09-16T19:19:29.344Z,11.60
2022-09-16T19:21:58.676Z,11.57
2022-09-16T19:24:32.770Z,11.55
2022-09-16T19:27:01.771Z,11.55
2022-09-16T19:29:32.650Z,11.50
2022-09-16T19:32:02.430Z,11.44
2022-09-16T19:34:34.713Z,11.37
2022-09-16T19:37:04.331Z,11.38
2022-09-16T19:39:34.800Z,11.34
2022-09-16T19:42:07.722Z,11.29
2022-09-16T19:44:36.897Z,11.21
2022-09-16T19:47:06.045Z,11.22
2022-09-16T19:49:35.237Z,11.15
2022-09-16T19:52:04.570Z,11.08
2022-09-16T19:54:35.418Z,11.07
2022-09-16T19:57:07.516Z,11.02
2022-09-16T19:59:36.592Z,11.01
2022-09-16T20:02:06.690Z,10.97
2022-09-16T20:04:35.703Z,10.89
2022-09-16T20:07:05.830Z,10.81
2022-09-16T20:09:36.359Z,10.80
2022-09-16T20:12:05.478Z,10.84
2022-09-16T20:14:34.964Z,10.81
2022-09-16T20:17:05.179Z,10.75
2022-09-16T20:19:34.589Z,10.75
2022-09-16T20:22:03.519Z,10.75
2022-09-16T20:24:32.564Z,10.81
2022-09-16T20:27:03.124Z,10.77
2022-09-16T20:29:32.182Z,10.71
2022-09-16T20:32:01.191Z,10.80
2022-09-16T20:34:30.190Z,10.84
2022-09-16T20:36:59.246Z,10.78
2022-09-16T20:39:53.513Z,10.75
2022-09-16T20:42:24.269Z,10.77
2022-09-16T20:44:53.743Z,10.66
2022-09-16T20:47:23.311Z,10.64
2022-09-16T20:49:52.403Z,10.58
2022-09-16T20:52:21.739Z,10.58
2022-09-16T20:54:51.446Z,10.57
2022-09-16T20:57:20.723Z,10.62
2022-09-16T20:59:51.720Z,10.65
2022-09-16T21:02:21.629Z,10.69
2022-09-16T21:04:51.249Z,10.73
2022-09-16T21:07:21.395Z,10.81
2022-09-16T21:09:50.335Z,10.86
2022-09-16T21:12:19.599Z,11.06
2022-09-16T21:14:55.309Z,11.36
2022-09-16T21:17:24.251Z,11.62
2022-09-16T21:19:53.294Z,11.76
2022-09-16T21:22:24.342Z,11.48
2022-09-16T21:24:53.402Z,11.99
2022-09-16T21:27:22.740Z,12.08
2022-09-16T21:29:53.016Z,12.19
2022-09-16T21:32:22.297Z,12.18
2022-09-16T21:34:53.104Z,12.17
2022-09-16T21:37:22.874Z,12.16
2022-09-16T21:39:51.767Z,12.18
2022-09-16T21:42:20.871Z,12.22
2022-09-16T21:44:49.933Z,12.24
2022-09-16T21:47:20.324Z,12.23
2022-09-16T21:49:50.015Z,12.25
2022-09-16T21:52:19.231Z,12.31
2022-09-16T21:54:48.240Z,12.35
2022-09-16T21:57:17.402Z,12.40
2022-09-16T21:59:46.240Z,12.47
2022-09-16T22:02:16.064Z,12.53
2022-09-16T22:04:46.538Z,12.59
2022-09-16T22:07:15.442Z,12.62
2022-09-16T22:09:44.314Z,12.67
2022-09-16T22:12:13.252Z,12.71
2022-09-16T22:14:42.352Z,12.71
2022-09-16T22:17:11.687Z,12.73
2022-09-16T22:19:41.175Z,12.72
2022-09-16T22:22:11.592Z,12.73
2022-09-16T22:24:40.514Z,12.75
2022-09-16T22:27:09.410Z,12.77
2022-09-16T22:29:38.280Z,12.80
2022-09-16T22:32:07.480Z,12.82
2022-09-16T22:34:37.067Z,12.82
2022-09-16T22:37:05.942Z,12.84
2022-09-16T22:39:36.261Z,12.82
2022-09-16T22:42:05.340Z,12.83
2022-09-16T22:44:34.622Z,12.84
2022-09-16T22:47:03.690Z,12.88
2022-09-16T22:49:32.608Z,12.89
2022-09-16T22:52:01.604Z,12.90
2022-09-16T22:54:30.485Z,12.92
2022-09-16T22:57:00.759Z,12.96
2022-09-16T22:59:29.996Z,12.98
2022-09-16T23:01:59.129Z,12.99
2022-09-16T23:04:28.576Z,12.99
2022-09-16T23:06:57.552Z,13.01
2022-09-16T23:09:26.632Z,13.00
2022-09-16T23:11:55.586Z,13.00
2022-09-16T23:14:26.687Z,13.01
2022-09-16T23:16:56.059Z,13.05
2022-09-16T23:19:25.133Z,13.06
2022-09-16T23:21:54.166Z,13.08
2022-09-16T23:24:23.940Z,13.11
2022-09-16T23:26:53.025Z,13.12
2022-09-16T23:29:22.091Z,13.09
2022-09-16T23:31:52.398Z,13.18
2022-09-16T23:34:22.692Z,13.15
2022-09-16T23:36:52.093Z,13.05
2022-09-16T23:39:21.186Z,13.10
2022-09-16T23:41:51.373Z,13.04
2022-09-16T23:44:20.642Z,12.94
2022-09-16T23:46:51.229Z,12.90
2022-09-16T23:49:27.297Z,12.84
2022-09-16T23:51:56.772Z,12.84
2022-09-16T23:54:26.018Z,12.80
2022-09-16T23:56:55.000Z,12.81
2022-09-16T23:59:23.829Z,12.74
